createdAt,value
2017-06-23T00:02:11.179Z,15.77
2017-06-23T00:04:38.691Z,15.30
2017-06-23T00:07:06.215Z,15.80
2017-06-23T00:09:33.719Z,14.50
2017-06-23T00:12:01.248Z,15.00
2017-06-23T00:14:29.522Z,14.13
2017-06-23T00:16:57.795Z,14.27
2017-06-23T00:19:26.085Z,14.73
2017-06-23T00:21:53.594Z,14.87
2017-06-23T00:24:21.114Z,15.30
2017-06-23T00:26:48.623Z,14.27
2017-06-23T00:29:16.156Z,14.00
2017-06-23T00:31:43.660Z,14.23
2017-06-23T00:34:11.171Z,14.10
2017-06-23T00:36:38.698Z,14.33
2017-06-23T00:39:06.203Z,14.17
2017-06-23T00:41:33.736Z,14.33
2017-06-23T00:44:01.243Z,14.20
2017-06-23T00:46:28.777Z,14.77
2017-06-23T00:48:56.283Z,13.90
2017-06-23T00:51:23.795Z,15.20
2017-06-23T00:53:51.315Z,14.50
2017-06-23T00:56:18.827Z,14.43
2017-06-23T00:58:46.351Z,14.90
2017-06-23T01:01:13.870Z,13.70
2017-06-23T01:03:42.163Z,14.77
2017-06-23T01:06:09.676Z,13.40
2017-06-23T01:08:37.188Z,14.67
2017-06-23T01:11:04.721Z,13.97
2017-06-23T01:13:32.996Z,14.13
2017-06-23T01:16:01.288Z,14.80
2017-06-23T01:18:28.803Z,15.10
2017-06-23T01:20:56.335Z,15.17
2017-06-23T01:23:23.847Z,14.60
2017-06-23T01:25:52.115Z,14.90
2017-06-23T01:28:20.408Z,14.53
2017-06-23T01:30:47.927Z,14.20
2017-06-23T01:33:15.453Z,14.90
2017-06-23T01:35:42.962Z,14.53
2017-06-23T01:38:11.295Z,14.60
2017-06-23T01:40:38.811Z,15.43
2017-06-23T01:43:07.087Z,14.10
2017-06-23T01:45:35.379Z,14.10
2017-06-23T01:48:02.892Z,14.80
2017-06-23T01:50:30.433Z,14.80
2017-06-23T01:52:57.946Z,15.13
2017-06-23T01:55:25.455Z,13.60
2017-06-23T01:57:52.979Z,15.47
2017-06-23T02:00:20.499Z,15.60
2017-06-23T02:02:48.794Z,14.03
2017-06-23T02:05:16.303Z,15.63
2017-06-23T02:07:43.811Z,14.07
2017-06-23T02:10:12.099Z,14.50
2017-06-23T02:12:39.611Z,15.60
2017-06-23T02:15:07.143Z,13.73
2017-06-23T02:17:34.651Z,14.27
2017-06-23T02:20:02.164Z,15.07
2017-06-23T02:22:29.686Z,14.93
2017-06-23T02:24:57.207Z,15.33
2017-06-23T02:27:24.744Z,13.63
2017-06-23T02:29:52.255Z,15.33
2017-06-23T02:32:19.770Z,14.40
2017-06-23T02:34:47.295Z,13.93
2017-06-23T02:37:14.807Z,15.43
2017-06-23T02:39:42.340Z,14.97
2017-06-23T02:42:09.855Z,13.83
2017-06-23T02:44:37.368Z,14.00
2017-06-23T02:47:04.899Z,14.40
2017-06-23T02:49:32.408Z,14.50
2017-06-23T02:52:00.704Z,15.63
2017-06-23T02:54:28.220Z,15.03
2017-06-23T02:56:55.731Z,16.07
2017-06-23T02:59:23.251Z,14.90
2017-06-23T03:01:50.759Z,14.90
2017-06-23T03:04:18.295Z,15.13
2017-06-23T03:06:45.803Z,14.70
2017-06-23T03:09:13.310Z,14.30
2017-06-23T03:11:40.840Z,15.90
2017-06-23T03:14:08.347Z,15.40
2017-06-23T03:16:35.879Z,15.80
2017-06-23T03:19:03.395Z,16.10
2017-06-23T03:21:30.904Z,15.67
2017-06-23T03:23:58.423Z,15.40
2017-06-23T03:26:25.930Z,16.20
2017-06-23T03:28:53.466Z,14.57
2017-06-23T03:31:21.743Z,15.03
2017-06-23T03:33:49.402Z,15.57
2017-06-23T03:36:16.947Z,15.20
2017-06-23T03:38:44.455Z,14.10
2017-06-23T03:41:11.986Z,14.87
2017-06-23T03:43:39.499Z,15.63
2017-06-23T03:46:07.008Z,14.67
2017-06-23T03:48:35.144Z,14.80
2017-06-23T03:51:02.652Z,15.00
2017-06-23T03:53:30.191Z,15.50
2017-06-23T03:55:57.703Z,16.00
2017-06-23T03:58:25.211Z,14.50
2017-06-23T04:00:52.731Z,14.27
2017-06-23T04:03:20.236Z,15.77
2017-06-23T04:05:47.767Z,15.00
2017-06-23T04:08:15.287Z,15.10
2017-06-23T04:10:42.797Z,15.50
2017-06-23T04:13:10.322Z,15.40
2017-06-23T04:15:37.831Z,15.27
2017-06-23T04:18:05.363Z,14.87
2017-06-23T04:20:33.647Z,14.30
2017-06-23T04:23:01.920Z,15.30
2017-06-23T04:25:30.219Z,14.17
2017-06-23T04:27:57.731Z,15.57
2017-06-23T04:30:25.254Z,15.23
2017-06-23T04:32:52.764Z,13.80
2017-06-23T04:35:20.275Z,13.80
2017-06-23T04:37:47.802Z,14.97
2017-06-23T04:40:15.319Z,14.60
2017-06-23T04:42:42.856Z,14.73
2017-06-23T04:45:10.367Z,13.93
2017-06-23T04:47:38.647Z,15.17
2017-06-23T04:50:06.939Z,14.80
2017-06-23T04:52:34.446Z,13.67
2017-06-23T04:55:01.983Z,13.00
2017-06-23T04:57:29.491Z,14.30
2017-06-23T04:59:57.762Z,12.80
2017-06-23T05:02:25.287Z,13.60
2017-06-23T05:04:52.796Z,12.80
2017-06-23T05:07:20.327Z,13.23
2017-06-23T05:09:47.835Z,13.53
2017-06-23T05:12:15.343Z,14.00
2017-06-23T05:14:43.635Z,13.20
2017-06-23T05:17:11.907Z,13.80
2017-06-23T05:19:40.203Z,14.20
2017-06-23T05:22:07.755Z,13.20
2017-06-23T05:24:35.266Z,12.90
2017-06-23T05:27:02.787Z,12.70
2017-06-23T05:29:30.299Z,14.10
2017-06-23T05:31:57.828Z,13.57
2017-06-23T05:34:25.338Z,13.27
2017-06-23T05:36:53.608Z,13.93
2017-06-23T05:39:21.898Z,14.07
2017-06-23T05:41:49.403Z,13.83
2017-06-23T05:44:16.940Z,13.60
2017-06-23T05:46:44.451Z,14.80
2017-06-23T05:49:11.963Z,13.40
2017-06-23T05:51:39.487Z,13.03
2017-06-23T05:54:06.999Z,13.37
2017-06-23T05:56:34.545Z,13.70
2017-06-23T05:59:02.056Z,12.80
2017-06-23T06:01:30.328Z,13.73
2017-06-23T06:03:58.624Z,14.20
2017-06-23T06:06:26.135Z,14.03
2017-06-23T06:08:53.676Z,13.80
2017-06-23T06:11:21.182Z,12.80
2017-06-23T06:13:49.458Z,12.60
2017-06-23T06:16:17.751Z,13.43
2017-06-23T06:18:45.255Z,14.30
2017-06-23T06:21:12.786Z,14.37
2017-06-23T06:23:40.286Z,14.00
2017-06-23T06:26:07.787Z,13.10
2017-06-23T06:28:35.315Z,12.70
2017-06-23T06:31:02.820Z,13.80
2017-06-23T06:33:30.347Z,13.07
2017-06-23T06:35:58.619Z,13.70
2017-06-23T06:38:26.887Z,13.03
2017-06-23T06:40:55.185Z,14.47
2017-06-23T06:43:22.691Z,13.43
2017-06-23T06:45:50.221Z,12.77
2017-06-23T06:48:17.722Z,13.67
2017-06-23T06:50:45.227Z,13.47
2017-06-23T06:53:12.752Z,13.60
2017-06-23T06:55:41.027Z,13.20
2017-06-23T06:58:09.327Z,14.10
2017-06-23T07:00:36.839Z,14.40
2017-06-23T07:03:04.343Z,14.30
2017-06-23T07:05:31.867Z,14.07
2017-06-23T07:07:59.381Z,14.00
2017-06-23T07:10:26.919Z,14.53
2017-06-23T07:12:54.427Z,14.70
2017-06-23T07:15:21.939Z,14.17
2017-06-23T07:17:49.463Z,14.07
2017-06-23T07:20:16.971Z,13.37
2017-06-23T07:22:44.511Z,14.40
2017-06-23T07:25:12.022Z,15.30
2017-06-23T07:27:39.531Z,15.03
2017-06-23T07:30:07.071Z,14.10
2017-06-23T07:32:35.342Z,13.43
2017-06-23T07:35:03.655Z,14.13
2017-06-23T07:37:31.164Z,13.87
2017-06-23T07:39:58.666Z,12.90
2017-06-23T07:42:26.195Z,13.13
2017-06-23T07:44:54.471Z,13.23
2017-06-23T07:47:22.766Z,13.50
2017-06-23T07:49:50.276Z,13.90
2017-06-23T07:52:17.787Z,14.50
2017-06-23T07:54:45.311Z,14.57
2017-06-23T07:57:12.819Z,13.10
2017-06-23T07:59:40.347Z,12.50
2017-06-23T08:02:08.623Z,14.47
2017-06-23T08:04:36.895Z,13.60
2017-06-23T08:07:04.419Z,13.07
2017-06-23T08:09:31.928Z,12.47
2017-06-23T08:11:59.456Z,12.53
2017-06-23T08:14:26.963Z,11.83
2017-06-23T08:16:54.471Z,12.60
2017-06-23T08:19:21.998Z,13.00
2017-06-23T08:21:49.503Z,11.93
2017-06-23T08:24:17.795Z,12.10
2017-06-23T08:26:45.305Z,13.13
2017-06-23T08:29:12.815Z,13.30
2017-06-23T08:31:40.340Z,13.27
2017-06-23T08:34:07.844Z,13.10
2017-06-23T08:36:35.376Z,12.60
2017-06-23T08:39:03.650Z,13.13
2017-06-23T08:41:31.923Z,13.67
2017-06-23T08:43:59.451Z,12.70
2017-06-23T08:46:26.954Z,13.07
2017-06-23T08:48:54.464Z,12.47
2017-06-23T08:51:22.002Z,13.07
2017-06-23T08:53:49.508Z,13.80
2017-06-23T08:56:17.783Z,13.30
2017-06-23T08:58:46.082Z,12.77
2017-06-23T09:01:13.597Z,13.63
2017-06-23T09:03:41.105Z,13.30
2017-06-23T09:06:08.644Z,13.57
2017-06-23T09:08:36.922Z,14.57
2017-06-23T09:11:04.427Z,13.20
2017-06-23T09:13:31.955Z,13.23
2017-06-23T09:15:59.472Z,13.10
2017-06-23T09:18:27.089Z,12.43
2017-06-23T09:20:54.611Z,13.20
2017-06-23T09:23:22.883Z,13.67
2017-06-23T09:25:50.393Z,13.43
2017-06-23T09:28:17.923Z,13.13
2017-06-23T09:30:45.439Z,14.30
2017-06-23T09:33:12.948Z,13.80
2017-06-23T09:35:40.479Z,13.40
2017-06-23T09:38:08.747Z,14.70
2017-06-23T09:40:37.034Z,13.53
2017-06-23T09:43:05.307Z,13.80
2017-06-23T09:45:33.607Z,13.60
2017-06-23T09:48:01.116Z,13.50
2017-06-23T09:50:28.619Z,14.20
2017-06-23T09:52:56.148Z,14.10
2017-06-23T09:55:24.425Z,13.93
2017-06-23T09:57:51.974Z,14.63
2017-06-23T10:00:19.489Z,13.70
2017-06-23T10:02:46.995Z,14.13
2017-06-23T10:05:14.542Z,14.43
2017-06-23T10:07:42.059Z,13.87
2017-06-23T10:10:09.591Z,14.03
2017-06-23T10:12:37.103Z,14.33
2017-06-23T10:15:04.608Z,13.90
2017-06-23T10:17:32.899Z,13.80
2017-06-23T10:20:00.411Z,13.17
2017-06-23T10:22:27.951Z,13.17
2017-06-23T10:24:55.456Z,14.60
2017-06-23T10:27:23.730Z,14.17
2017-06-23T10:29:52.027Z,14.17
2017-06-23T10:32:19.535Z,14.80
2017-06-23T10:34:47.071Z,14.80
2017-06-23T10:37:14.575Z,14.17
2017-06-23T10:39:42.848Z,14.47
2017-06-23T10:42:11.141Z,14.20
2017-06-23T10:44:38.650Z,13.90
2017-06-23T10:47:06.179Z,14.17
2017-06-23T10:49:33.690Z,13.47
2017-06-23T10:52:01.200Z,14.70
2017-06-23T10:54:28.719Z,13.90
2017-06-23T10:56:56.991Z,15.50
2017-06-23T10:59:25.287Z,16.43
2017-06-23T11:01:53.557Z,14.47
2017-06-23T11:04:21.851Z,13.50
2017-06-23T11:06:49.354Z,15.17
2017-06-23T11:09:16.870Z,15.40
2017-06-23T11:11:44.396Z,14.90
2017-06-23T11:14:11.899Z,14.57
2017-06-23T11:16:39.428Z,15.70
2017-06-23T11:19:07.703Z,15.53
2017-06-23T11:21:35.979Z,15.57
2017-06-23T11:24:03.511Z,15.23
2017-06-23T11:26:31.024Z,16.10
2017-06-23T11:28:58.556Z,15.03
2017-06-23T11:31:26.827Z,15.70
2017-06-23T11:33:55.107Z,14.97
2017-06-23T11:36:23.399Z,14.03
2017-06-23T11:38:50.907Z,15.60
2017-06-23T11:41:18.435Z,15.17
2017-06-23T11:43:45.947Z,15.33
2017-06-23T11:46:13.459Z,14.40
2017-06-23T11:48:40.987Z,14.37
2017-06-23T11:51:08.498Z,14.40
2017-06-23T11:53:36.045Z,14.67
2017-06-23T11:56:03.556Z,14.90
2017-06-23T11:58:31.064Z,15.87
2017-06-23T12:00:58.588Z,14.97
2017-06-23T12:03:26.099Z,14.83
2017-06-23T12:05:53.631Z,15.63
2017-06-23T12:08:21.147Z,14.50
2017-06-23T12:10:49.423Z,16.10
2017-06-23T12:13:16.951Z,15.97
2017-06-23T12:15:44.462Z,15.53
2017-06-23T12:18:11.991Z,16.10
2017-06-23T12:20:39.495Z,15.63
2017-06-23T12:23:07.004Z,16.40
2017-06-23T12:25:34.527Z,13.87
2017-06-23T12:28:02.048Z,12.97
2017-06-23T12:30:29.591Z,12.70
2017-06-23T12:32:57.096Z,11.37
2017-06-23T12:35:24.599Z,12.73
2017-06-23T12:37:52.891Z,12.33
2017-06-23T12:40:20.407Z,11.77
2017-06-23T12:42:47.939Z,12.67
2017-06-23T12:45:15.451Z,13.57
2017-06-23T12:47:43.719Z,13.17
2017-06-23T12:50:12.007Z,15.00
2017-06-23T12:52:39.518Z,15.07
2017-06-23T12:55:07.061Z,14.33
2017-06-23T12:57:34.566Z,14.93
2017-06-23T13:00:02.079Z,14.90
2017-06-23T13:02:29.603Z,14.50
2017-06-23T13:04:57.127Z,16.00
2017-06-23T13:07:24.647Z,16.17
2017-06-23T13:09:52.159Z,15.80
2017-06-23T13:12:20.451Z,15.97
2017-06-23T13:14:48.724Z,16.20
2017-06-23T13:17:16.995Z,16.93
2017-06-23T13:19:44.520Z,16.80
2017-06-23T13:22:12.027Z,17.23
2017-06-23T13:24:39.560Z,17.40
2017-06-23T13:27:07.838Z,16.07
2017-06-23T13:29:36.119Z,17.03
2017-06-23T13:32:04.408Z,16.00
2017-06-23T13:34:31.911Z,16.23
2017-06-23T13:36:59.440Z,16.60
2017-06-23T13:39:26.953Z,15.10
2017-06-23T13:41:54.458Z,15.10
2017-06-23T13:44:21.983Z,14.40
2017-06-23T13:46:49.488Z,15.43
2017-06-23T13:49:17.018Z,15.00
2017-06-23T13:51:44.523Z,14.17
2017-06-23T13:54:12.027Z,15.20
2017-06-23T13:56:39.551Z,15.63
2017-06-23T13:59:07.054Z,14.77
2017-06-23T14:01:34.583Z,15.50
2017-06-23T14:04:02.091Z,15.40
2017-06-23T14:06:29.599Z,15.17
2017-06-23T14:08:57.120Z,15.17
2017-06-23T14:11:24.623Z,15.97
2017-06-23T14:13:52.919Z,15.67
2017-06-23T14:16:20.432Z,15.67
2017-06-23T14:18:47.939Z,16.70
2017-06-23T14:21:15.464Z,16.10
2017-06-23T14:23:42.971Z,15.70
2017-06-23T14:26:10.503Z,16.33
2017-06-23T14:28:38.775Z,15.67
2017-06-23T14:31:07.043Z,16.30
2017-06-23T14:33:34.577Z,17.13
2017-06-23T14:36:02.084Z,16.87
2017-06-23T14:38:29.615Z,17.27
2017-06-23T14:40:57.123Z,16.80
2017-06-23T14:43:24.634Z,16.70
2017-06-23T14:45:52.923Z,16.40
2017-06-23T14:48:21.191Z,17.17
2017-06-23T14:50:49.487Z,16.10
2017-06-23T14:53:16.995Z,16.80
2017-06-23T14:55:44.507Z,16.47
2017-06-23T14:58:12.027Z,16.50
2017-06-23T15:00:39.537Z,17.07
2017-06-23T15:03:07.069Z,16.77
2017-06-23T15:05:34.570Z,16.77
2017-06-23T15:08:02.084Z,15.70
2017-06-23T15:10:29.611Z,16.47
2017-06-23T15:12:57.119Z,17.00
2017-06-23T15:15:24.651Z,18.40
2017-06-23T15:17:52.924Z,17.90
2017-06-23T15:20:21.199Z,17.13
2017-06-23T15:22:49.491Z,18.10
2017-06-23T15:25:17.003Z,17.23
2017-06-23T15:27:44.532Z,17.10
2017-06-23T15:30:12.040Z,17.27
2017-06-23T15:32:39.548Z,17.30
2017-06-23T15:35:07.070Z,17.37
2017-06-23T15:37:34.587Z,16.87
2017-06-23T15:40:02.115Z,17.37
2017-06-23T15:42:29.623Z,16.47
2017-06-23T15:44:57.131Z,17.53
2017-06-23T15:47:24.655Z,17.07
2017-06-23T15:49:52.174Z,17.30
2017-06-23T15:52:19.700Z,17.10
2017-06-23T15:54:47.206Z,17.57
2017-06-23T15:57:14.735Z,17.23
2017-06-23T15:59:42.239Z,16.80
2017-06-23T16:02:09.744Z,16.67
2017-06-23T16:04:37.277Z,16.57
2017-06-23T16:07:05.547Z,16.43
2017-06-23T16:09:33.844Z,15.40
2017-06-23T16:12:01.351Z,15.47
2017-06-23T16:14:28.860Z,14.70
2017-06-23T16:16:56.382Z,15.37
2017-06-23T16:19:23.887Z,14.73
2017-06-23T16:21:51.427Z,15.43
2017-06-23T16:24:18.937Z,15.37
2017-06-23T16:26:46.447Z,16.37
2017-06-23T16:29:13.971Z,16.20
2017-06-23T16:31:41.479Z,17.07
2017-06-23T16:34:09.011Z,16.00
2017-06-23T16:36:37.291Z,16.20
2017-06-23T16:39:05.562Z,17.70
2017-06-23T16:41:33.851Z,16.20
2017-06-23T16:44:01.354Z,17.60
2017-06-23T16:46:28.883Z,17.43
2017-06-23T16:48:56.386Z,17.23
2017-06-23T16:51:23.887Z,17.80
2017-06-23T16:53:51.410Z,18.20
2017-06-23T16:56:18.915Z,16.20
2017-06-23T16:58:46.445Z,17.03
2017-06-23T17:01:14.724Z,18.13
2017-06-23T17:03:42.995Z,17.50
2017-06-23T17:06:11.283Z,17.40
2017-06-23T17:08:38.792Z,17.60
2017-06-23T17:11:06.323Z,17.43
2017-06-23T17:13:33.832Z,18.23
2017-06-23T17:16:01.336Z,17.67
2017-06-23T17:18:28.867Z,18.07
2017-06-23T17:20:57.138Z,17.67
2017-06-23T17:23:24.696Z,17.87
2017-06-23T17:25:52.988Z,16.67
2017-06-23T17:28:20.507Z,17.60
2017-06-23T17:30:48.835Z,16.13
2017-06-23T17:33:16.338Z,17.60
2017-06-23T17:35:43.866Z,17.53
2017-06-23T17:38:11.375Z,16.30
2017-06-23T17:40:39.655Z,17.43
2017-06-23T17:43:07.952Z,16.40
2017-06-23T17:45:35.459Z,17.50
2017-06-23T17:48:02.984Z,17.33
2017-06-23T17:50:30.496Z,16.80
2017-06-23T17:52:58.007Z,16.57
2017-06-23T17:55:25.534Z,16.07
2017-06-23T17:57:53.811Z,14.80
2017-06-23T18:00:22.111Z,16.20
2017-06-23T18:02:49.624Z,15.97
2017-06-23T18:05:17.135Z,16.20
2017-06-23T18:07:44.659Z,16.20
2017-06-23T18:10:12.939Z,14.83
2017-06-23T18:12:41.244Z,15.70
2017-06-23T18:15:08.751Z,16.47
2017-06-23T18:17:36.267Z,16.20
2017-06-23T18:20:03.795Z,17.53
2017-06-23T18:22:31.312Z,16.30
2017-06-23T18:24:58.841Z,16.10
2017-06-23T18:27:26.351Z,15.73
2017-06-23T18:29:54.651Z,16.03
2017-06-23T18:32:22.160Z,16.47
2017-06-23T18:34:49.670Z,16.50
2017-06-23T18:37:17.199Z,15.77
2017-06-23T18:39:44.712Z,16.10
2017-06-23T18:42:12.243Z,16.07
2017-06-23T18:44:39.759Z,15.97
2017-06-23T18:47:07.269Z,16.23
2017-06-23T18:49:34.806Z,16.33
2017-06-23T18:52:03.083Z,15.00
2017-06-23T18:54:31.379Z,14.97
2017-06-23T18:56:58.896Z,16.00
2017-06-23T18:59:26.412Z,15.93
2017-06-23T19:01:53.942Z,15.37
2017-06-23T19:04:21.462Z,16.07
2017-06-23T19:06:49.002Z,16.67
2017-06-23T19:09:16.515Z,16.20
2017-06-23T19:11:44.790Z,16.17
2017-06-23T19:14:13.083Z,16.60
2017-06-23T19:16:40.600Z,16.00
2017-06-23T19:19:08.132Z,15.33
2017-06-23T19:21:35.648Z,16.43
2017-06-23T19:24:03.159Z,17.80
2017-06-23T19:26:30.692Z,18.17
2017-06-23T19:28:58.200Z,16.63
2017-06-23T19:31:25.727Z,15.93
2017-06-23T19:33:53.246Z,16.10
2017-06-23T19:36:20.775Z,16.90
2017-06-23T19:38:49.063Z,16.50
2017-06-23T19:41:17.335Z,18.17
2017-06-23T19:43:45.632Z,16.90
2017-06-23T19:46:13.143Z,17.00
2017-06-23T19:48:40.671Z,15.00
2017-06-23T19:51:08.188Z,16.30
2017-06-23T19:53:35.692Z,16.53
2017-06-23T19:56:03.224Z,16.60
2017-06-23T19:58:30.743Z,16.10
2017-06-23T20:00:58.275Z,17.90
2017-06-23T20:03:25.783Z,17.07
2017-06-23T20:05:54.059Z,15.73
2017-06-23T20:08:22.359Z,15.93
2017-06-23T20:10:49.866Z,16.67
2017-06-23T20:13:17.411Z,15.57
2017-06-23T20:15:44.927Z,15.00
2017-06-23T20:18:12.445Z,16.23
2017-06-23T20:20:39.984Z,16.10
2017-06-23T20:23:07.495Z,15.87
2017-06-23T20:25:35.028Z,15.87
2017-06-23T20:28:02.539Z,15.97
2017-06-23T20:30:30.055Z,15.87
2017-06-23T20:32:58.351Z,15.03
2017-06-23T20:35:25.868Z,14.67
2017-06-23T20:37:53.396Z,16.13
2017-06-23T20:40:20.906Z,15.90
2017-06-23T20:42:49.187Z,16.43
2017-06-23T20:45:17.484Z,15.17
2017-06-23T20:47:44.999Z,15.77
2017-06-23T20:50:12.531Z,14.53
2017-06-23T20:52:40.043Z,15.67
2017-06-23T20:55:08.318Z,13.93
2017-06-23T20:57:36.620Z,14.33
2017-06-23T21:00:04.131Z,14.33
2017-06-23T21:02:31.658Z,14.50
2017-06-23T21:04:59.167Z,14.57
2017-06-23T21:07:27.448Z,13.70
2017-06-23T21:09:55.739Z,14.00
2017-06-23T21:12:23.256Z,13.80
2017-06-23T21:14:50.792Z,13.80
2017-06-23T21:17:18.299Z,14.47
2017-06-23T21:19:45.808Z,13.73
2017-06-23T21:22:13.331Z,13.47
2017-06-23T21:24:40.847Z,15.10
2017-06-23T21:27:08.371Z,14.67
2017-06-23T21:29:35.883Z,14.77
2017-06-23T21:32:04.156Z,13.27
2017-06-23T21:34:31.687Z,14.50
2017-06-23T21:36:59.203Z,14.27
2017-06-23T21:39:26.735Z,14.23
2017-06-23T21:41:55.008Z,14.77
2017-06-23T21:44:23.282Z,14.37
2017-06-23T21:46:50.819Z,15.77
2017-06-23T21:49:18.337Z,13.90
2017-06-23T21:51:45.867Z,14.70
2017-06-23T21:54:14.144Z,14.83
2017-06-23T21:56:42.415Z,14.10
2017-06-23T21:59:10.709Z,14.27
2017-06-23T22:01:38.223Z,14.10
2017-06-23T22:04:05.747Z,13.80
2017-06-23T22:06:33.255Z,13.97
2017-06-23T22:09:00.863Z,12.83
2017-06-23T22:11:28.376Z,14.47
2017-06-23T22:13:56.679Z,13.10
2017-06-23T22:16:24.188Z,13.90
2017-06-23T22:18:51.698Z,13.53
2017-06-23T22:21:19.218Z,13.50
2017-06-23T22:23:46.735Z,13.07
2017-06-23T22:26:14.275Z,13.60
2017-06-23T22:28:41.782Z,13.27
2017-06-23T22:31:09.296Z,12.77
2017-06-23T22:33:36.825Z,12.63
2017-06-23T22:36:05.103Z,12.93
2017-06-23T22:38:33.404Z,12.13
2017-06-23T22:41:00.915Z,13.00
2017-06-23T22:43:28.427Z,12.53
2017-06-23T22:45:55.958Z,13.97
2017-06-23T22:48:24.231Z,13.90
2017-06-23T22:50:52.527Z,14.40
2017-06-23T22:53:20.045Z,14.33
2017-06-23T22:55:47.556Z,13.70
2017-06-23T22:58:15.081Z,14.60
2017-06-23T23:00:43.359Z,14.30
2017-06-23T23:03:10.895Z,13.23
2017-06-23T23:05:38.404Z,14.77
2017-06-23T23:08:05.912Z,14.60
2017-06-23T23:10:33.435Z,14.70
2017-06-23T23:13:00.943Z,14.73
2017-06-23T23:15:28.475Z,14.33
2017-06-23T23:17:55.992Z,14.70
2017-06-23T23:20:23.513Z,13.63
2017-06-23T23:22:51.039Z,13.00
2017-06-23T23:25:18.548Z,13.33
2017-06-23T23:27:46.847Z,13.47
2017-06-23T23:30:14.360Z,13.60
2017-06-23T23:32:41.867Z,13.83
2017-06-23T23:35:09.391Z,13.80
2017-06-23T23:37:37.668Z,14.53
2017-06-23T23:40:05.967Z,14.10
2017-06-23T23:42:33.483Z,15.10
2017-06-23T23:45:00.996Z,13.37
2017-06-23T23:47:28.527Z,14.40
2017-06-23T23:49:56.806Z,13.73
2017-06-23T23:52:24.343Z,14.00
2017-06-23T23:54:51.855Z,14.10
2017-06-23T23:57:19.363Z,13.00
2017-06-23T23:59:46.895Z,14.67
